createdAt,value
2023-05-09T00:04:01.405Z,15.28
2023-05-09T00:09:06.039Z,15.22
2023-05-09T00:14:08.867Z,15.29
2023-05-09T00:19:13.017Z,15.27
2023-05-09T00:24:17.206Z,15.25
2023-05-09T00:29:19.890Z,15.22
2023-05-09T00:34:22.572Z,15.20
2023-05-09T00:39:26.806Z,15.09
2023-05-09T00:44:29.549Z,15.14
2023-05-09T00:49:32.405Z,15.11
2023-05-09T00:54:36.501Z,15.10
2023-05-09T00:59:39.272Z,15.09
2023-05-09T01:04:42.282Z,15.16
2023-05-09T01:09:48.315Z,15.10
2023-05-09T01:14:55.523Z,15.12
2023-05-09T01:20:02.509Z,15.04
2023-05-09T01:25:21.976Z,14.97
2023-05-09T01:30:27.458Z,14.93
2023-05-09T01:35:31.878Z,14.85
2023-05-09T01:40:35.145Z,14.92
2023-05-09T01:45:40.437Z,14.85
2023-05-09T01:50:44.723Z,14.76
2023-05-09T01:55:48.375Z,14.84
2023-05-09T02:00:52.909Z,14.76
2023-05-09T02:05:56.618Z,14.67
2023-05-09T02:10:59.447Z,14.69
2023-05-09T02:16:03.518Z,14.69
2023-05-09T02:21:06.905Z,14.70
2023-05-09T02:26:09.803Z,14.68
2023-05-09T02:31:15.108Z,14.57
2023-05-09T02:36:18.448Z,14.48
2023-05-09T02:41:21.776Z,14.41
2023-05-09T02:46:25.983Z,14.34
2023-05-09T02:51:29.440Z,14.18
2023-05-09T02:56:32.162Z,14.20
2023-05-09T03:01:36.257Z,14.00
2023-05-09T03:06:39.029Z,13.95
2023-05-09T03:11:41.994Z,13.61
2023-05-09T03:16:46.121Z,13.60
2023-05-09T03:21:57.461Z,13.56
2023-05-09T03:27:00.290Z,13.43
2023-05-09T03:32:05.217Z,13.51
2023-05-09T03:37:08.145Z,13.47
2023-05-09T03:42:15.426Z,13.40
2023-05-09T03:47:22.366Z,13.34
2023-05-09T03:52:25.675Z,13.32
2023-05-09T03:57:28.442Z,13.33
2023-05-09T04:02:34.641Z,13.33
2023-05-09T04:07:37.647Z,13.16
2023-05-09T04:12:40.814Z,13.10
2023-05-09T04:17:46.423Z,13.20
2023-05-09T04:22:49.198Z,13.21
2023-05-09T04:27:53.802Z,13.29
2023-05-09T04:32:57.982Z,13.28
2023-05-09T04:38:02.819Z,13.25
2023-05-09T04:43:06.110Z,13.48
2023-05-09T04:48:10.230Z,13.48
2023-05-09T04:53:12.963Z,13.64
2023-05-09T04:58:16.593Z,13.69
2023-05-09T05:03:20.709Z,13.79
2023-05-09T05:08:23.507Z,13.76
2023-05-09T05:13:26.366Z,13.93
2023-05-09T05:18:33.930Z,14.25
2023-05-09T05:23:37.161Z,14.59
2023-05-09T05:28:40.009Z,14.45
2023-05-09T05:33:44.376Z,14.76
2023-05-09T05:38:47.361Z,14.76
2023-05-09T05:43:51.127Z,14.77
2023-05-09T05:48:57.600Z,14.83
2023-05-09T05:54:01.790Z,14.93
2023-05-09T05:59:04.949Z,15.33
2023-05-09T06:04:09.169Z,15.44
2023-05-09T06:09:11.972Z,15.66
2023-05-09T06:14:14.663Z,15.62
2023-05-09T06:19:18.793Z,16.10
2023-05-09T06:24:32.078Z,16.09
2023-05-09T06:29:39.078Z,16.30
2023-05-09T06:34:43.082Z,16.25
2023-05-09T06:39:45.771Z,16.18
2023-05-09T06:44:48.502Z,16.42
2023-05-09T06:49:52.544Z,16.65
2023-05-09T06:54:55.401Z,16.70
2023-05-09T06:59:58.096Z,16.93
2023-05-09T07:05:02.266Z,17.15
2023-05-09T07:10:11.219Z,16.86
2023-05-09T07:15:20.561Z,17.05
2023-05-09T07:20:32.957Z,17.23
2023-05-09T07:25:35.683Z,17.39
2023-05-09T07:30:38.342Z,17.44
2023-05-09T07:35:42.377Z,17.57
2023-05-09T07:40:45.066Z,17.70
2023-05-09T07:45:47.924Z,17.80
2023-05-09T07:50:51.926Z,18.42
2023-05-09T07:55:54.606Z,18.44
2023-05-09T08:00:57.854Z,18.44
2023-05-09T08:06:01.875Z,18.72
2023-05-09T08:11:06.078Z,18.59
2023-05-09T08:16:08.870Z,18.45
2023-05-09T08:21:13.431Z,18.42
2023-05-09T08:26:16.101Z,18.35
2023-05-09T08:31:18.806Z,18.29
2023-05-09T08:36:22.874Z,18.26
2023-05-09T08:41:27.911Z,18.35
2023-05-09T08:46:34.082Z,18.39
2023-05-09T08:51:39.028Z,18.47
2023-05-09T08:56:42.160Z,18.52
2023-05-09T09:01:44.925Z,18.53
2023-05-09T09:06:49.265Z,18.81
2023-05-09T09:11:53.199Z,18.96
2023-05-09T09:16:56.987Z,18.96
2023-05-09T09:22:04.422Z,19.03
2023-05-09T09:27:07.689Z,19.29
2023-05-09T09:32:10.387Z,19.32
2023-05-09T09:37:24.108Z,19.31
2023-05-09T09:42:26.828Z,19.35
2023-05-09T09:47:32.996Z,19.07
2023-05-09T09:52:37.055Z,19.20
2023-05-09T09:57:41.687Z,19.39
2023-05-09T10:02:51.855Z,20.14
2023-05-09T10:07:59.978Z,20.40
2023-05-09T10:13:04.351Z,20.23
2023-05-09T10:18:08.587Z,19.97
2023-05-09T10:23:14.228Z,19.98
2023-05-09T10:28:19.561Z,20.10
2023-05-09T10:33:25.757Z,20.12
2023-05-09T10:38:29.976Z,20.48
2023-05-09T10:43:34.827Z,20.59
2023-05-09T10:48:39.617Z,20.28
2023-05-09T10:53:45.521Z,20.46
2023-05-09T10:58:48.905Z,20.32
2023-05-09T11:03:56.199Z,20.20
2023-05-09T11:09:30.147Z,20.25
2023-05-09T11:14:33.522Z,20.24
2023-05-09T11:19:57.633Z,19.96
2023-05-09T11:25:05.532Z,20.07
2023-05-09T11:30:09.411Z,20.33
2023-05-09T11:35:14.739Z,20.31
2023-05-09T11:40:20.369Z,20.65
2023-05-09T11:45:23.800Z,20.84
2023-05-09T11:50:26.534Z,20.71
2023-05-09T11:55:31.952Z,20.83
2023-05-09T12:00:34.609Z,20.48
2023-05-09T12:05:39.376Z,20.96
2023-05-09T12:10:43.371Z,20.69
2023-05-09T12:15:46.098Z,20.96
2023-05-09T12:20:50.256Z,21.21
2023-05-09T12:25:56.418Z,21.35
2023-05-09T12:30:59.811Z,20.99
2023-05-09T12:36:04.676Z,20.84
2023-05-09T12:41:21.899Z,20.82
2023-05-09T12:46:32.738Z,20.90
2023-05-09T12:51:35.444Z,20.60
2023-05-09T12:56:40.376Z,19.32
2023-05-09T13:01:43.096Z,19.44
2023-05-09T13:06:50.098Z,18.99
2023-05-09T13:11:54.492Z,18.60
2023-05-09T13:16:57.299Z,18.12
2023-05-09T13:22:00.149Z,18.62
2023-05-09T13:27:04.767Z,18.30
2023-05-09T13:32:07.755Z,18.77
2023-05-09T13:37:10.407Z,18.89
2023-05-09T13:42:14.439Z,18.87
2023-05-09T13:47:17.176Z,18.76
2023-05-09T13:52:20.065Z,19.23
2023-05-09T13:57:24.431Z,19.43
2023-05-09T14:02:27.163Z,19.63
2023-05-09T14:07:29.945Z,19.78
2023-05-09T14:12:33.949Z,19.85
2023-05-09T14:17:36.897Z,20.02
2023-05-09T14:22:39.816Z,20.07
2023-05-09T14:27:43.831Z,19.98
2023-05-09T14:32:46.592Z,20.08
2023-05-09T14:37:49.275Z,20.36
2023-05-09T14:42:53.306Z,20.46
2023-05-09T14:47:56.250Z,20.24
2023-05-09T14:52:59.701Z,20.23
2023-05-09T14:58:03.848Z,20.35
2023-05-09T15:03:06.572Z,20.34
2023-05-09T15:08:09.446Z,20.28
2023-05-09T15:13:13.482Z,20.17
2023-05-09T15:18:17.054Z,20.09
2023-05-09T15:23:19.800Z,20.11
2023-05-09T15:28:23.867Z,20.24
2023-05-09T15:33:26.865Z,20.21
2023-05-09T15:38:29.761Z,20.07
2023-05-09T15:43:33.869Z,20.05
2023-05-09T15:48:36.601Z,19.91
2023-05-09T15:53:39.280Z,19.81
2023-05-09T15:58:43.501Z,19.80
2023-05-09T16:03:46.461Z,19.65
2023-05-09T16:08:49.225Z,19.45
2023-05-09T16:13:53.286Z,19.28
2023-05-09T16:18:56.078Z,19.16
2023-05-09T16:24:00.124Z,19.17
2023-05-09T16:29:04.292Z,19.03
2023-05-09T16:34:08.043Z,18.62
2023-05-09T16:39:10.763Z,18.32
2023-05-09T16:44:15.287Z,17.99
2023-05-09T16:49:17.975Z,17.93
2023-05-09T16:54:21.305Z,17.85
2023-05-09T16:59:25.641Z,17.92
2023-05-09T17:04:29.322Z,17.66
2023-05-09T17:09:32.786Z,17.62
2023-05-09T17:14:36.816Z,17.69
2023-05-09T17:19:39.522Z,17.72
2023-05-09T17:24:42.185Z,17.71
2023-05-09T17:29:46.304Z,17.68
2023-05-09T17:34:48.985Z,17.64
2023-05-09T17:39:52.580Z,17.44
2023-05-09T17:44:56.761Z,17.34
2023-05-09T17:49:59.444Z,17.24
2023-05-09T17:55:02.326Z,17.22
2023-05-09T18:00:09.104Z,17.14
2023-05-09T18:05:17.499Z,17.08
2023-05-09T18:10:20.350Z,17.07
2023-05-09T18:15:25.507Z,17.14
2023-05-09T18:20:28.243Z,17.02
2023-05-09T18:25:31.105Z,17.07
2023-05-09T18:30:36.143Z,16.99
2023-05-09T18:35:38.861Z,16.88
2023-05-09T18:40:42.002Z,16.33
2023-05-09T18:45:47.912Z,16.19
2023-05-09T18:50:52.406Z,16.17
2023-05-09T18:55:56.116Z,16.13
2023-05-09T19:01:00.966Z,16.17
2023-05-09T19:06:03.758Z,16.00
2023-05-09T19:11:06.565Z,15.97
2023-05-09T19:16:10.672Z,15.95
2023-05-09T19:21:15.505Z,15.75
2023-05-09T19:26:19.533Z,15.64
2023-05-09T19:31:25.496Z,15.63
2023-05-09T19:36:28.388Z,15.62
2023-05-09T19:41:31.868Z,15.46
2023-05-09T19:46:38.029Z,15.23
2023-05-09T19:51:41.231Z,15.38
2023-05-09T19:56:43.858Z,15.35
2023-05-09T20:01:47.871Z,15.15
2023-05-09T20:06:50.633Z,15.38
2023-05-09T20:11:53.333Z,15.29
2023-05-09T20:16:57.653Z,15.26
2023-05-09T20:22:00.471Z,15.23
2023-05-09T20:27:03.326Z,15.43
2023-05-09T20:32:07.447Z,14.94
2023-05-09T20:37:10.246Z,15.12
2023-05-09T20:42:13.222Z,15.22
2023-05-09T20:47:17.421Z,15.33
2023-05-09T20:52:20.156Z,15.38
2023-05-09T20:57:22.825Z,15.42
2023-05-09T21:02:26.945Z,15.42
2023-05-09T21:07:29.679Z,15.30
2023-05-09T21:12:32.722Z,15.35
2023-05-09T21:17:36.757Z,15.30
2023-05-09T21:22:39.491Z,15.32
2023-05-09T21:27:42.126Z,15.36
2023-05-09T21:32:46.214Z,15.38
2023-05-09T21:37:50.433Z,15.38
2023-05-09T21:42:53.124Z,15.12
2023-05-09T21:47:57.171Z,14.97
2023-05-09T21:53:00.371Z,15.18
2023-05-09T21:58:03.055Z,15.29
2023-05-09T22:03:07.254Z,15.20
2023-05-09T22:08:09.980Z,15.10
2023-05-09T22:13:12.671Z,15.26
2023-05-09T22:18:16.700Z,15.19
2023-05-09T22:23:19.344Z,15.28
2023-05-09T22:28:22.076Z,15.25
2023-05-09T22:33:26.143Z,15.29
2023-05-09T22:38:28.821Z,15.25
2023-05-09T22:43:38.776Z,15.14
2023-05-09T22:48:43.450Z,14.98
2023-05-09T22:53:46.639Z,15.17
2023-05-09T22:58:49.707Z,15.07
2023-05-09T23:03:54.112Z,15.12
2023-05-09T23:08:56.784Z,15.09
2023-05-09T23:13:59.535Z,14.94
2023-05-09T23:19:03.669Z,15.03
2023-05-09T23:24:06.804Z,15.03
2023-05-09T23:29:09.496Z,15.10
2023-05-09T23:34:13.510Z,14.95
2023-05-09T23:39:16.986Z,14.93
2023-05-09T23:44:19.619Z,14.95
2023-05-09T23:49:23.618Z,14.96
2023-05-09T23:54:26.890Z,14.95
2023-05-09T23:59:29.539Z,14.90
